sensor_id;sensor_type;location;lat;lon;timestamp;P1;durP1;ratioP1;P2;durP2;ratioP2
69161;SDS011;56269;51.738;21.652;2023-04-09T00:01:59;27.30;;;11.98;;
69161;SDS011;56269;51.738;21.652;2023-04-09T00:04:26;30.00;;;12.18;;
69161;SDS011;56269;51.738;21.652;2023-04-09T00:06:53;28.40;;;10.93;;
69161;SDS011;56269;51.738;21.652;2023-04-09T00:09:19;30.67;;;12.17;;
69161;SDS011;56269;51.738;21.652;2023-04-09T00:11:45;27.20;;;12.43;;
69161;SDS011;56269;51.738;21.652;2023-04-09T00:14:11;32.00;;;13.98;;
69161;SDS011;56269;51.738;21.652;2023-04-09T00:16:38;30.35;;;13.95;;
69161;SDS011;56269;51.738;21.652;2023-04-09T00:19:05;29.35;;;13.20;;
69161;SDS011;56269;51.738;21.652;2023-04-09T00:21:31;28.47;;;12.80;;
69161;SDS011;56269;51.738;21.652;2023-04-09T00:23:57;29.63;;;12.65;;
69161;SDS011;56269;51.738;21.652;2023-04-09T00:26:24;28.73;;;12.65;;
69161;SDS011;56269;51.738;21.652;2023-04-09T00:28:50;56.75;;;24.23;;
69161;SDS011;56269;51.738;21.652;2023-04-09T00:31:16;58.80;;;23.85;;
69161;SDS011;56269;51.738;21.652;2023-04-09T00:33:42;53.80;;;21.83;;
69161;SDS011;56269;51.738;21.652;2023-04-09T00:36:09;44.63;;;19.13;;
69161;SDS011;56269;51.738;21.652;2023-04-09T00:38:35;27.27;;;12.30;;
69161;SDS011;56269;51.738;21.652;2023-04-09T00:41:02;24.95;;;11.75;;
69161;SDS011;56269;51.738;21.652;2023-04-09T00:43:28;25.65;;;12.25;;
69161;SDS011;56269;51.738;21.652;2023-04-09T00:45:54;23.97;;;10.93;;
69161;SDS011;56269;51.738;21.652;2023-04-09T00:48:21;25.52;;;12.35;;
69161;SDS011;56269;51.738;21.652;2023-04-09T00:50:48;25.27;;;10.93;;
69161;SDS011;56269;51.738;21.652;2023-04-09T00:53:14;26.38;;;12.00;;
69161;SDS011;56269;51.738;21.652;2023-04-09T00:55:41;30.05;;;12.75;;
69161;SDS011;56269;51.738;21.652;2023-04-09T00:58:07;25.80;;;11.97;;
69161;SDS011;56269;51.738;21.652;2023-04-09T01:00:34;30.27;;;12.32;;
69161;SDS011;56269;51.738;21.652;2023-04-09T01:03:00;28.20;;;12.57;;
69161;SDS011;56269;51.738;21.652;2023-04-09T01:06:11;31.25;;;13.38;;
69161;SDS011;56269;51.738;21.652;2023-04-09T01:08:57;31.20;;;13.00;;
69161;SDS011;56269;51.738;21.652;2023-04-09T01:16:50;29.35;;;12.77;;
69161;SDS011;56269;51.738;21.652;2023-04-09T01:27:29;25.17;;;10.75;;
69161;SDS011;56269;51.738;21.652;2023-04-09T01:30:05;26.80;;;11.68;;
69161;SDS011;56269;51.738;21.652;2023-04-09T01:32:33;26.45;;;11.85;;
69161;SDS011;56269;51.738;21.652;2023-04-09T01:35:01;28.15;;;12.52;;
69161;SDS011;56269;51.738;21.652;2023-04-09T01:37:29;24.97;;;11.70;;
69161;SDS011;56269;51.738;21.652;2023-04-09T01:39:55;29.08;;;12.70;;
69161;SDS011;56269;51.738;21.652;2023-04-09T01:42:22;25.73;;;11.98;;
69161;SDS011;56269;51.738;21.652;2023-04-09T01:44:49;28.20;;;12.23;;
69161;SDS011;56269;51.738;21.652;2023-04-09T01:47:17;29.05;;;13.20;;
69161;SDS011;56269;51.738;21.652;2023-04-09T01:49:44;29.77;;;12.90;;
69161;SDS011;56269;51.738;21.652;2023-04-09T01:52:11;27.15;;;12.57;;
69161;SDS011;56269;51.738;21.652;2023-04-09T01:54:37;31.17;;;13.93;;
69161;SDS011;56269;51.738;21.652;2023-04-09T01:57:03;24.70;;;11.82;;
69161;SDS011;56269;51.738;21.652;2023-04-09T01:59:30;27.27;;;12.00;;
69161;SDS011;56269;51.738;21.652;2023-04-09T02:02:00;27.83;;;12.33;;
69161;SDS011;56269;51.738;21.652;2023-04-09T02:04:42;27.92;;;12.65;;
69161;SDS011;56269;51.738;21.652;2023-04-09T02:09:45;30.60;;;13.52;;
69161;SDS011;56269;51.738;21.652;2023-04-09T02:12:16;26.27;;;12.45;;
69161;SDS011;56269;51.738;21.652;2023-04-09T02:14:47;29.83;;;13.30;;
69161;SDS011;56269;51.738;21.652;2023-04-09T02:17:17;26.85;;;12.93;;
69161;SDS011;56269;51.738;21.652;2023-04-09T02:19:44;27.65;;;12.55;;
69161;SDS011;56269;51.738;21.652;2023-04-09T02:22:12;25.40;;;11.00;;
69161;SDS011;56269;51.738;21.652;2023-04-09T02:24:39;27.17;;;12.15;;
69161;SDS011;56269;51.738;21.652;2023-04-09T02:27:06;26.47;;;12.03;;
69161;SDS011;56269;51.738;21.652;2023-04-09T02:29:33;26.58;;;12.43;;
69161;SDS011;56269;51.738;21.652;2023-04-09T02:31:59;25.58;;;11.82;;
69161;SDS011;56269;51.738;21.652;2023-04-09T02:34:26;22.58;;;11.07;;
69161;SDS011;56269;51.738;21.652;2023-04-09T02:36:53;25.33;;;11.50;;
69161;SDS011;56269;51.738;21.652;2023-04-09T02:39:19;27.13;;;11.97;;
69161;SDS011;56269;51.738;21.652;2023-04-09T02:41:45;28.33;;;12.38;;
69161;SDS011;56269;51.738;21.652;2023-04-09T02:44:11;27.13;;;12.45;;
69161;SDS011;56269;51.738;21.652;2023-04-09T02:46:38;29.05;;;12.90;;
69161;SDS011;56269;51.738;21.652;2023-04-09T02:49:05;31.17;;;13.68;;
69161;SDS011;56269;51.738;21.652;2023-04-09T02:51:35;31.20;;;13.73;;
69161;SDS011;56269;51.738;21.652;2023-04-09T02:54:01;30.98;;;14.30;;
69161;SDS011;56269;51.738;21.652;2023-04-09T02:56:29;32.08;;;14.02;;
69161;SDS011;56269;51.738;21.652;2023-04-09T02:58:55;30.20;;;13.05;;
69161;SDS011;56269;51.738;21.652;2023-04-09T03:01:21;29.85;;;12.48;;
69161;SDS011;56269;51.738;21.652;2023-04-09T03:03:47;29.03;;;12.70;;
69161;SDS011;56269;51.738;21.652;2023-04-09T03:06:14;23.00;;;11.35;;
69161;SDS011;56269;51.738;21.652;2023-04-09T03:08:40;25.85;;;12.13;;
69161;SDS011;56269;51.738;21.652;2023-04-09T03:11:06;23.27;;;10.60;;
69161;SDS011;56269;51.738;21.652;2023-04-09T03:13:34;26.20;;;11.82;;
69161;SDS011;56269;51.738;21.652;2023-04-09T03:16:00;30.40;;;14.63;;
69161;SDS011;56269;51.738;21.652;2023-04-09T03:18:27;29.92;;;14.82;;
69161;SDS011;56269;51.738;21.652;2023-04-09T03:20:53;31.88;;;14.75;;
69161;SDS011;56269;51.738;21.652;2023-04-09T03:23:19;32.03;;;14.25;;
69161;SDS011;56269;51.738;21.652;2023-04-09T03:25:46;33.65;;;14.80;;
69161;SDS011;56269;51.738;21.652;2023-04-09T03:28:12;27.57;;;13.70;;
69161;SDS011;56269;51.738;21.652;2023-04-09T03:30:38;31.38;;;13.88;;
69161;SDS011;56269;51.738;21.652;2023-04-09T03:33:05;31.73;;;14.60;;
69161;SDS011;56269;51.738;21.652;2023-04-09T03:35:31;27.52;;;12.68;;
69161;SDS011;56269;51.738;21.652;2023-04-09T03:37:57;24.20;;;11.80;;
69161;SDS011;56269;51.738;21.652;2023-04-09T03:40:24;25.43;;;11.70;;
69161;SDS011;56269;51.738;21.652;2023-04-09T03:42:50;23.92;;;11.20;;
69161;SDS011;56269;51.738;21.652;2023-04-09T03:45:16;29.50;;;13.43;;
69161;SDS011;56269;51.738;21.652;2023-04-09T03:47:42;28.63;;;12.82;;
69161;SDS011;56269;51.738;21.652;2023-04-09T03:50:09;30.67;;;12.77;;
69161;SDS011;56269;51.738;21.652;2023-04-09T03:52:35;31.83;;;13.60;;
69161;SDS011;56269;51.738;21.652;2023-04-09T03:55:02;31.73;;;14.93;;
69161;SDS011;56269;51.738;21.652;2023-04-09T03:57:29;30.15;;;13.90;;
69161;SDS011;56269;51.738;21.652;2023-04-09T03:59:55;35.72;;;14.52;;
69161;SDS011;56269;51.738;21.652;2023-04-09T04:02:21;31.98;;;13.70;;
69161;SDS011;56269;51.738;21.652;2023-04-09T04:04:48;31.30;;;14.23;;
69161;SDS011;56269;51.738;21.652;2023-04-09T04:07:14;29.42;;;13.48;;
69161;SDS011;56269;51.738;21.652;2023-04-09T04:09:40;33.17;;;14.55;;
69161;SDS011;56269;51.738;21.652;2023-04-09T04:12:06;32.97;;;15.13;;
69161;SDS011;56269;51.738;21.652;2023-04-09T04:14:33;30.73;;;14.07;;
69161;SDS011;56269;51.738;21.652;2023-04-09T04:17:00;30.50;;;14.10;;
69161;SDS011;56269;51.738;21.652;2023-04-09T04:19:26;29.52;;;13.48;;
69161;SDS011;56269;51.738;21.652;2023-04-09T04:21:52;28.45;;;13.52;;
69161;SDS011;56269;51.738;21.652;2023-04-09T04:24:19;30.20;;;13.90;;
69161;SDS011;56269;51.738;21.652;2023-04-09T04:26:45;32.05;;;13.80;;
69161;SDS011;56269;51.738;21.652;2023-04-09T04:29:11;33.30;;;15.80;;
69161;SDS011;56269;51.738;21.652;2023-04-09T04:31:37;31.75;;;15.20;;
69161;SDS011;56269;51.738;21.652;2023-04-09T04:34:04;30.67;;;14.70;;
69161;SDS011;56269;51.738;21.652;2023-04-09T04:36:30;34.25;;;16.40;;
69161;SDS011;56269;51.738;21.652;2023-04-09T04:38:56;32.47;;;15.18;;
69161;SDS011;56269;51.738;21.652;2023-04-09T04:41:23;29.00;;;13.73;;
69161;SDS011;56269;51.738;21.652;2023-04-09T04:43:49;30.10;;;13.85;;
69161;SDS011;56269;51.738;21.652;2023-04-09T04:46:15;33.97;;;16.42;;
69161;SDS011;56269;51.738;21.652;2023-04-09T04:48:42;32.45;;;15.57;;
69161;SDS011;56269;51.738;21.652;2023-04-09T04:51:08;31.42;;;14.63;;
69161;SDS011;56269;51.738;21.652;2023-04-09T04:53:34;30.10;;;15.23;;
69161;SDS011;56269;51.738;21.652;2023-04-09T04:56:00;33.75;;;16.75;;
69161;SDS011;56269;51.738;21.652;2023-04-09T04:58:27;36.72;;;17.10;;
69161;SDS011;56269;51.738;21.652;2023-04-09T05:00:53;39.28;;;17.45;;
69161;SDS011;56269;51.738;21.652;2023-04-09T05:03:20;36.38;;;17.48;;
69161;SDS011;56269;51.738;21.652;2023-04-09T05:05:46;36.47;;;17.63;;
69161;SDS011;56269;51.738;21.652;2023-04-09T05:08:13;40.97;;;19.45;;
69161;SDS011;56269;51.738;21.652;2023-04-09T05:10:39;43.97;;;20.23;;
69161;SDS011;56269;51.738;21.652;2023-04-09T05:13:08;53.35;;;22.48;;
69161;SDS011;56269;51.738;21.652;2023-04-09T05:15:36;54.58;;;22.00;;
69161;SDS011;56269;51.738;21.652;2023-04-09T05:18:06;41.67;;;18.83;;
69161;SDS011;56269;51.738;21.652;2023-04-09T05:20:33;44.13;;;19.63;;
69161;SDS011;56269;51.738;21.652;2023-04-09T05:23:00;49.13;;;20.35;;
69161;SDS011;56269;51.738;21.652;2023-04-09T05:25:26;47.25;;;19.80;;
69161;SDS011;56269;51.738;21.652;2023-04-09T05:27:52;37.03;;;17.52;;
69161;SDS011;56269;51.738;21.652;2023-04-09T05:30:18;35.13;;;16.67;;
69161;SDS011;56269;51.738;21.652;2023-04-09T05:32:46;33.47;;;16.08;;
69161;SDS011;56269;51.738;21.652;2023-04-09T05:35:12;34.30;;;15.52;;
69161;SDS011;56269;51.738;21.652;2023-04-09T05:37:38;36.40;;;16.70;;
69161;SDS011;56269;51.738;21.652;2023-04-09T05:40:04;31.90;;;15.13;;
69161;SDS011;56269;51.738;21.652;2023-04-09T05:42:31;33.03;;;16.47;;
69161;SDS011;56269;51.738;21.652;2023-04-09T05:44:58;33.40;;;15.75;;
69161;SDS011;56269;51.738;21.652;2023-04-09T05:47:25;32.97;;;16.60;;
69161;SDS011;56269;51.738;21.652;2023-04-09T05:49:51;29.10;;;14.43;;
69161;SDS011;56269;51.738;21.652;2023-04-09T05:52:19;28.67;;;14.02;;
69161;SDS011;56269;51.738;21.652;2023-04-09T05:54:46;24.03;;;11.53;;
69161;SDS011;56269;51.738;21.652;2023-04-09T05:57:12;27.42;;;13.02;;
69161;SDS011;56269;51.738;21.652;2023-04-09T05:59:39;29.13;;;13.52;;
69161;SDS011;56269;51.738;21.652;2023-04-09T06:02:05;28.33;;;13.57;;
69161;SDS011;56269;51.738;21.652;2023-04-09T06:04:32;26.83;;;13.70;;
69161;SDS011;56269;51.738;21.652;2023-04-09T06:06:58;25.37;;;12.57;;
69161;SDS011;56269;51.738;21.652;2023-04-09T06:09:25;26.52;;;12.57;;
69161;SDS011;56269;51.738;21.652;2023-04-09T06:11:52;26.65;;;13.10;;
69161;SDS011;56269;51.738;21.652;2023-04-09T06:14:18;24.27;;;12.25;;
69161;SDS011;56269;51.738;21.652;2023-04-09T06:16:45;25.33;;;11.68;;
69161;SDS011;56269;51.738;21.652;2023-04-09T06:19:11;21.57;;;10.37;;
69161;SDS011;56269;51.738;21.652;2023-04-09T06:21:38;22.70;;;10.57;;
69161;SDS011;56269;51.738;21.652;2023-04-09T06:24:05;22.40;;;10.70;;
69161;SDS011;56269;51.738;21.652;2023-04-09T06:26:31;20.80;;;10.73;;
69161;SDS011;56269;51.738;21.652;2023-04-09T06:28:58;21.00;;;10.52;;
69161;SDS011;56269;51.738;21.652;2023-04-09T06:31:24;21.87;;;10.33;;
69161;SDS011;56269;51.738;21.652;2023-04-09T06:33:51;21.13;;;10.00;;
69161;SDS011;56269;51.738;21.652;2023-04-09T06:36:17;20.00;;;10.52;;
69161;SDS011;56269;51.738;21.652;2023-04-09T06:38:43;21.90;;;10.10;;
69161;SDS011;56269;51.738;21.652;2023-04-09T06:41:10;19.20;;;9.25;;
69161;SDS011;56269;51.738;21.652;2023-04-09T06:43:37;18.87;;;9.30;;
69161;SDS011;56269;51.738;21.652;2023-04-09T06:46:03;18.95;;;9.32;;
69161;SDS011;56269;51.738;21.652;2023-04-09T06:48:30;18.80;;;9.05;;
69161;SDS011;56269;51.738;21.652;2023-04-09T06:50:56;23.13;;;11.27;;
69161;SDS011;56269;51.738;21.652;2023-04-09T06:53:23;19.45;;;10.23;;
69161;SDS011;56269;51.738;21.652;2023-04-09T06:55:49;22.20;;;11.20;;
69161;SDS011;56269;51.738;21.652;2023-04-09T06:58:16;20.60;;;10.07;;
69161;SDS011;56269;51.738;21.652;2023-04-09T07:00:42;23.80;;;11.27;;
69161;SDS011;56269;51.738;21.652;2023-04-09T07:03:09;17.05;;;9.30;;
69161;SDS011;56269;51.738;21.652;2023-04-09T07:05:35;15.73;;;7.75;;
69161;SDS011;56269;51.738;21.652;2023-04-09T07:08:02;15.93;;;7.93;;
69161;SDS011;56269;51.738;21.652;2023-04-09T07:10:29;15.95;;;8.65;;
69161;SDS011;56269;51.738;21.652;2023-04-09T07:12:55;15.18;;;7.43;;
69161;SDS011;56269;51.738;21.652;2023-04-09T07:15:28;15.73;;;7.85;;
69161;SDS011;56269;51.738;21.652;2023-04-09T07:17:57;16.52;;;8.63;;
69161;SDS011;56269;51.738;21.652;2023-04-09T07:20:24;16.47;;;7.93;;
69161;SDS011;56269;51.738;21.652;2023-04-09T07:22:50;15.48;;;7.70;;
69161;SDS011;56269;51.738;21.652;2023-04-09T07:25:16;16.88;;;8.13;;
69161;SDS011;56269;51.738;21.652;2023-04-09T07:27:43;14.75;;;7.95;;
69161;SDS011;56269;51.738;21.652;2023-04-09T07:30:09;14.57;;;7.80;;
69161;SDS011;56269;51.738;21.652;2023-04-09T07:32:36;13.10;;;7.43;;
69161;SDS011;56269;51.738;21.652;2023-04-09T07:35:03;15.05;;;7.90;;
69161;SDS011;56269;51.738;21.652;2023-04-09T07:37:32;14.32;;;7.55;;
69161;SDS011;56269;51.738;21.652;2023-04-09T07:39:58;14.20;;;7.72;;
69161;SDS011;56269;51.738;21.652;2023-04-09T07:42:25;14.30;;;7.55;;
69161;SDS011;56269;51.738;21.652;2023-04-09T07:44:51;12.70;;;6.87;;
69161;SDS011;56269;51.738;21.652;2023-04-09T07:47:18;12.55;;;7.00;;
69161;SDS011;56269;51.738;21.652;2023-04-09T07:49:44;12.95;;;7.10;;
69161;SDS011;56269;51.738;21.652;2023-04-09T07:52:12;12.98;;;6.80;;
69161;SDS011;56269;51.738;21.652;2023-04-09T07:54:38;13.15;;;7.05;;
69161;SDS011;56269;51.738;21.652;2023-04-09T07:57:04;13.13;;;7.23;;
69161;SDS011;56269;51.738;21.652;2023-04-09T07:59:31;12.82;;;6.75;;
69161;SDS011;56269;51.738;21.652;2023-04-09T08:01:59;13.75;;;7.20;;
69161;SDS011;56269;51.738;21.652;2023-04-09T08:04:25;15.18;;;7.35;;
69161;SDS011;56269;51.738;21.652;2023-04-09T08:06:52;13.60;;;6.93;;
69161;SDS011;56269;51.738;21.652;2023-04-09T08:09:19;14.33;;;7.40;;
69161;SDS011;56269;51.738;21.652;2023-04-09T08:11:46;15.40;;;7.43;;
69161;SDS011;56269;51.738;21.652;2023-04-09T08:14:13;14.93;;;7.78;;
69161;SDS011;56269;51.738;21.652;2023-04-09T08:16:41;14.85;;;7.60;;
69161;SDS011;56269;51.738;21.652;2023-04-09T08:19:09;15.25;;;7.90;;
69161;SDS011;56269;51.738;21.652;2023-04-09T08:21:36;13.33;;;7.23;;
69161;SDS011;56269;51.738;21.652;2023-04-09T08:24:03;15.68;;;7.82;;
69161;SDS011;56269;51.738;21.652;2023-04-09T08:26:32;15.10;;;7.43;;
69161;SDS011;56269;51.738;21.652;2023-04-09T08:28:58;13.27;;;7.70;;
69161;SDS011;56269;51.738;21.652;2023-04-09T08:31:24;14.05;;;7.70;;
69161;SDS011;56269;51.738;21.652;2023-04-09T08:33:51;13.17;;;7.03;;
69161;SDS011;56269;51.738;21.652;2023-04-09T08:36:18;12.95;;;6.95;;
69161;SDS011;56269;51.738;21.652;2023-04-09T08:38:45;13.40;;;6.53;;
69161;SDS011;56269;51.738;21.652;2023-04-09T08:41:19;12.63;;;6.40;;
69161;SDS011;56269;51.738;21.652;2023-04-09T08:43:46;12.93;;;6.55;;
69161;SDS011;56269;51.738;21.652;2023-04-09T08:46:14;13.83;;;6.93;;
69161;SDS011;56269;51.738;21.652;2023-04-09T08:48:43;12.05;;;6.30;;
69161;SDS011;56269;51.738;21.652;2023-04-09T08:51:12;10.90;;;5.63;;
69161;SDS011;56269;51.738;21.652;2023-04-09T08:53:40;12.55;;;6.40;;
69161;SDS011;56269;51.738;21.652;2023-04-09T08:56:10;13.98;;;6.38;;
69161;SDS011;56269;51.738;21.652;2023-04-09T08:58:40;14.60;;;7.03;;
69161;SDS011;56269;51.738;21.652;2023-04-09T09:01:44;13.90;;;7.20;;
69161;SDS011;56269;51.738;21.652;2023-04-09T09:04:04;13.70;;;6.30;;
69161;SDS011;56269;51.738;21.652;2023-04-09T09:06:33;12.85;;;6.72;;
69161;SDS011;56269;51.738;21.652;2023-04-09T09:11:43;11.67;;;6.07;;
69161;SDS011;56269;51.738;21.652;2023-04-09T09:14:15;10.68;;;5.53;;
69161;SDS011;56269;51.738;21.652;2023-04-09T09:16:47;12.77;;;6.40;;
69161;SDS011;56269;51.738;21.652;2023-04-09T09:19:30;12.05;;;6.38;;
69161;SDS011;56269;51.738;21.652;2023-04-09T09:22:02;11.60;;;6.43;;
69161;SDS011;56269;51.738;21.652;2023-04-09T09:24:29;9.73;;;4.40;;
69161;SDS011;56269;51.738;21.652;2023-04-09T09:27:00;13.70;;;6.60;;
69161;SDS011;56269;51.738;21.652;2023-04-09T09:29:27;12.63;;;6.30;;
69161;SDS011;56269;51.738;21.652;2023-04-09T09:31:54;13.57;;;6.00;;
69161;SDS011;56269;51.738;21.652;2023-04-09T09:34:21;13.15;;;6.15;;
69161;SDS011;56269;51.738;21.652;2023-04-09T09:36:49;12.87;;;5.17;;
69161;SDS011;56269;51.738;21.652;2023-04-09T09:39:16;10.23;;;5.13;;
69161;SDS011;56269;51.738;21.652;2023-04-09T09:41:43;10.23;;;5.25;;
69161;SDS011;56269;51.738;21.652;2023-04-09T09:44:11;11.00;;;5.13;;
69161;SDS011;56269;51.738;21.652;2023-04-09T09:46:55;12.20;;;5.75;;
69161;SDS011;56269;51.738;21.652;2023-04-09T09:49:23;9.87;;;5.23;;
69161;SDS011;56269;51.738;21.652;2023-04-09T09:51:49;10.68;;;5.25;;
69161;SDS011;56269;51.738;21.652;2023-04-09T09:54:22;10.25;;;3.85;;
69161;SDS011;56269;51.738;21.652;2023-04-09T09:56:51;9.85;;;4.00;;
69161;SDS011;56269;51.738;21.652;2023-04-09T09:59:20;10.57;;;4.90;;
69161;SDS011;56269;51.738;21.652;2023-04-09T10:01:55;9.90;;;5.03;;
69161;SDS011;56269;51.738;21.652;2023-04-09T10:04:28;11.13;;;5.05;;
69161;SDS011;56269;51.738;21.652;2023-04-09T10:06:58;12.13;;;5.95;;
69161;SDS011;56269;51.738;21.652;2023-04-09T10:09:27;7.40;;;3.42;;
69161;SDS011;56269;51.738;21.652;2023-04-09T10:11:54;9.32;;;4.22;;
69161;SDS011;56269;51.738;21.652;2023-04-09T10:14:22;8.50;;;3.20;;
69161;SDS011;56269;51.738;21.652;2023-04-09T10:16:49;9.48;;;4.40;;
69161;SDS011;56269;51.738;21.652;2023-04-09T10:19:16;9.07;;;4.50;;
69161;SDS011;56269;51.738;21.652;2023-04-09T10:24:19;7.75;;;3.67;;
69161;SDS011;56269;51.738;21.652;2023-04-09T10:26:46;9.10;;;3.83;;
69161;SDS011;56269;51.738;21.652;2023-04-09T10:29:13;8.68;;;4.15;;
69161;SDS011;56269;51.738;21.652;2023-04-09T10:31:50;9.43;;;4.43;;
69161;SDS011;56269;51.738;21.652;2023-04-09T10:34:19;8.55;;;3.97;;
69161;SDS011;56269;51.738;21.652;2023-04-09T10:36:51;8.05;;;4.10;;
69161;SDS011;56269;51.738;21.652;2023-04-09T10:39:20;10.53;;;5.03;;
69161;SDS011;56269;51.738;21.652;2023-04-09T10:41:51;9.27;;;4.30;;
69161;SDS011;56269;51.738;21.652;2023-04-09T10:44:22;8.27;;;3.95;;
69161;SDS011;56269;51.738;21.652;2023-04-09T10:46:51;9.15;;;4.30;;
69161;SDS011;56269;51.738;21.652;2023-04-09T10:49:19;8.68;;;4.03;;
69161;SDS011;56269;51.738;21.652;2023-04-09T10:52:03;11.00;;;4.87;;
69161;SDS011;56269;51.738;21.652;2023-04-09T10:54:41;8.75;;;3.88;;
69161;SDS011;56269;51.738;21.652;2023-04-09T10:57:15;9.30;;;4.28;;
69161;SDS011;56269;51.738;21.652;2023-04-09T10:59:45;8.98;;;3.88;;
69161;SDS011;56269;51.738;21.652;2023-04-09T11:05:06;6.73;;;2.93;;
69161;SDS011;56269;51.738;21.652;2023-04-09T11:10:37;7.35;;;3.50;;
69161;SDS011;56269;51.738;21.652;2023-04-09T11:13:06;9.90;;;4.00;;
69161;SDS011;56269;51.738;21.652;2023-04-09T11:15:35;8.10;;;3.80;;
69161;SDS011;56269;51.738;21.652;2023-04-09T11:18:02;8.87;;;4.30;;
69161;SDS011;56269;51.738;21.652;2023-04-09T11:20:32;8.50;;;4.07;;
69161;SDS011;56269;51.738;21.652;2023-04-09T11:22:59;8.15;;;3.90;;
69161;SDS011;56269;51.738;21.652;2023-04-09T11:25:26;7.97;;;3.45;;
69161;SDS011;56269;51.738;21.652;2023-04-09T11:27:58;7.97;;;3.50;;
69161;SDS011;56269;51.738;21.652;2023-04-09T11:30:27;6.60;;;2.90;;
69161;SDS011;56269;51.738;21.652;2023-04-09T11:32:54;8.13;;;3.60;;
69161;SDS011;56269;51.738;21.652;2023-04-09T11:35:20;7.32;;;3.58;;
69161;SDS011;56269;51.738;21.652;2023-04-09T11:37:48;8.25;;;3.78;;
69161;SDS011;56269;51.738;21.652;2023-04-09T11:40:24;8.20;;;4.20;;
69161;SDS011;56269;51.738;21.652;2023-04-09T11:42:52;10.43;;;4.57;;
69161;SDS011;56269;51.738;21.652;2023-04-09T11:45:20;14.77;;;6.75;;
69161;SDS011;56269;51.738;21.652;2023-04-09T11:47:51;8.18;;;3.80;;
69161;SDS011;56269;51.738;21.652;2023-04-09T11:50:18;8.73;;;4.10;;
69161;SDS011;56269;51.738;21.652;2023-04-09T11:52:46;7.30;;;3.42;;
69161;SDS011;56269;51.738;21.652;2023-04-09T11:55:21;7.17;;;3.57;;
69161;SDS011;56269;51.738;21.652;2023-04-09T11:57:52;8.07;;;3.22;;
69161;SDS011;56269;51.738;21.652;2023-04-09T12:00:25;8.07;;;3.72;;
69161;SDS011;56269;51.738;21.652;2023-04-09T12:03:00;8.00;;;3.70;;
69161;SDS011;56269;51.738;21.652;2023-04-09T12:05:28;7.03;;;3.38;;
69161;SDS011;56269;51.738;21.652;2023-04-09T12:07:58;7.87;;;3.13;;
69161;SDS011;56269;51.738;21.652;2023-04-09T12:10:28;8.07;;;3.20;;
69161;SDS011;56269;51.738;21.652;2023-04-09T12:13:04;7.38;;;3.30;;
69161;SDS011;56269;51.738;21.652;2023-04-09T12:15:32;7.75;;;3.60;;
69161;SDS011;56269;51.738;21.652;2023-04-09T12:18:00;7.75;;;3.65;;
69161;SDS011;56269;51.738;21.652;2023-04-09T12:20:30;7.63;;;3.53;;
69161;SDS011;56269;51.738;21.652;2023-04-09T12:23:01;7.60;;;3.47;;
69161;SDS011;56269;51.738;21.652;2023-04-09T12:25:29;7.38;;;3.70;;
69161;SDS011;56269;51.738;21.652;2023-04-09T12:27:56;7.20;;;3.38;;
69161;SDS011;56269;51.738;21.652;2023-04-09T12:30:23;9.18;;;4.05;;
69161;SDS011;56269;51.738;21.652;2023-04-09T12:32:50;8.40;;;3.70;;
69161;SDS011;56269;51.738;21.652;2023-04-09T12:35:17;8.43;;;3.80;;
69161;SDS011;56269;51.738;21.652;2023-04-09T12:37:44;8.60;;;3.95;;
69161;SDS011;56269;51.738;21.652;2023-04-09T12:40:10;8.75;;;4.03;;
69161;SDS011;56269;51.738;21.652;2023-04-09T12:42:40;7.60;;;3.78;;
69161;SDS011;56269;51.738;21.652;2023-04-09T12:45:11;7.17;;;3.40;;
69161;SDS011;56269;51.738;21.652;2023-04-09T12:47:39;8.70;;;3.90;;
69161;SDS011;56269;51.738;21.652;2023-04-09T12:50:06;8.40;;;4.13;;
69161;SDS011;56269;51.738;21.652;2023-04-09T12:52:34;8.57;;;4.35;;
69161;SDS011;56269;51.738;21.652;2023-04-09T12:55:00;8.80;;;4.03;;
69161;SDS011;56269;51.738;21.652;2023-04-09T12:57:27;8.60;;;4.23;;
69161;SDS011;56269;51.738;21.652;2023-04-09T12:59:54;9.07;;;4.18;;
69161;SDS011;56269;51.738;21.652;2023-04-09T13:02:21;8.88;;;4.72;;
69161;SDS011;56269;51.738;21.652;2023-04-09T13:04:47;8.60;;;3.97;;
69161;SDS011;56269;51.738;21.652;2023-04-09T13:07:14;7.47;;;4.00;;
69161;SDS011;56269;51.738;21.652;2023-04-09T13:09:43;8.37;;;3.67;;
69161;SDS011;56269;51.738;21.652;2023-04-09T13:12:10;7.32;;;3.53;;
69161;SDS011;56269;51.738;21.652;2023-04-09T13:14:40;7.88;;;3.65;;
69161;SDS011;56269;51.738;21.652;2023-04-09T13:17:08;7.47;;;3.45;;
69161;SDS011;56269;51.738;21.652;2023-04-09T13:19:34;9.00;;;3.65;;
69161;SDS011;56269;51.738;21.652;2023-04-09T13:22:01;8.50;;;3.60;;
69161;SDS011;56269;51.738;21.652;2023-04-09T13:24:27;7.47;;;3.35;;
69161;SDS011;56269;51.738;21.652;2023-04-09T13:26:54;7.78;;;3.53;;
69161;SDS011;56269;51.738;21.652;2023-04-09T13:29:20;9.02;;;3.80;;
69161;SDS011;56269;51.738;21.652;2023-04-09T13:31:47;8.10;;;3.97;;
69161;SDS011;56269;51.738;21.652;2023-04-09T13:34:13;8.37;;;3.70;;
69161;SDS011;56269;51.738;21.652;2023-04-09T13:36:40;6.95;;;3.05;;
69161;SDS011;56269;51.738;21.652;2023-04-09T13:39:06;7.78;;;3.90;;
69161;SDS011;56269;51.738;21.652;2023-04-09T13:41:32;8.23;;;4.00;;
69161;SDS011;56269;51.738;21.652;2023-04-09T13:43:59;8.02;;;3.90;;
69161;SDS011;56269;51.738;21.652;2023-04-09T13:46:26;8.23;;;3.80;;
69161;SDS011;56269;51.738;21.652;2023-04-09T13:48:53;7.28;;;3.10;;
69161;SDS011;56269;51.738;21.652;2023-04-09T13:51:20;7.15;;;3.30;;
69161;SDS011;56269;51.738;21.652;2023-04-09T13:53:47;7.57;;;3.50;;
69161;SDS011;56269;51.738;21.652;2023-04-09T13:56:14;8.23;;;3.50;;
69161;SDS011;56269;51.738;21.652;2023-04-09T13:58:41;7.50;;;3.53;;
69161;SDS011;56269;51.738;21.652;2023-04-09T14:01:09;7.30;;;3.88;;
69161;SDS011;56269;51.738;21.652;2023-04-09T14:03:36;8.50;;;3.75;;
69161;SDS011;56269;51.738;21.652;2023-04-09T14:06:08;8.23;;;3.65;;
69161;SDS011;56269;51.738;21.652;2023-04-09T14:08:34;8.68;;;3.58;;
69161;SDS011;56269;51.738;21.652;2023-04-09T14:11:02;8.20;;;3.80;;
69161;SDS011;56269;51.738;21.652;2023-04-09T14:13:28;7.88;;;3.80;;
69161;SDS011;56269;51.738;21.652;2023-04-09T14:15:55;7.95;;;4.20;;
69161;SDS011;56269;51.738;21.652;2023-04-09T14:18:21;7.88;;;3.63;;
69161;SDS011;56269;51.738;21.652;2023-04-09T14:20:47;8.07;;;3.83;;
69161;SDS011;56269;51.738;21.652;2023-04-09T14:23:13;8.77;;;3.83;;
69161;SDS011;56269;51.738;21.652;2023-04-09T14:25:40;9.57;;;3.60;;
69161;SDS011;56269;51.738;21.652;2023-04-09T14:28:06;8.57;;;3.90;;
69161;SDS011;56269;51.738;21.652;2023-04-09T14:30:33;9.95;;;4.05;;
69161;SDS011;56269;51.738;21.652;2023-04-09T14:33:00;8.15;;;3.90;;
69161;SDS011;56269;51.738;21.652;2023-04-09T14:35:26;8.43;;;3.90;;
69161;SDS011;56269;51.738;21.652;2023-04-09T14:37:52;7.95;;;3.60;;
69161;SDS011;56269;51.738;21.652;2023-04-09T14:40:19;8.30;;;3.88;;
69161;SDS011;56269;51.738;21.652;2023-04-09T14:42:45;8.15;;;3.63;;
69161;SDS011;56269;51.738;21.652;2023-04-09T14:45:11;8.77;;;3.80;;
69161;SDS011;56269;51.738;21.652;2023-04-09T14:47:37;7.87;;;3.53;;
69161;SDS011;56269;51.738;21.652;2023-04-09T14:50:04;9.43;;;3.60;;
69161;SDS011;56269;51.738;21.652;2023-04-09T14:52:30;8.40;;;4.10;;